Time;durP1;ratioP1;P1;durP2;ratioP2;P2;SDS_P1;SDS_P2;PMS_P1;PMS_P2;Temp;Humidity;BMP_temperature;BMP_pressure;BME280_temperature;BME280_humidity;BME280_pressure;Samples;Min_cycle;Max_cycle;Signal;HPM_P1;HPM_P2
2022/09/17 03:00:57;;;;;;;0.90;0.60;;;12.20;80.40;;;;;;5869414;23;20413;-71
2022/09/17 03:03:31;;;;;;;0.70;0.53;;;12.30;80.40;;;;;;4936795;29;20495;-70
2022/09/17 03:05:59;;;;;;;0.70;0.60;;;12.20;80.40;;;;;;4936625;29;20435;-70
2022/09/17 03:08:29;;;;;;;0.70;0.50;;;12.10;80.70;;;;;;4936567;29;20514;-71
2022/09/17 03:10:56;;;;;;;1.23;0.80;;;12.10;80.70;;;;;;4936469;29;20476;-70
2022/09/17 03:13:22;;;;;;;0.70;0.60;;;12.10;80.60;;;;;;4936182;29;20943;-71
2022/09/17 03:15:49;;;;;;;1.10;0.70;;;12.20;80.30;;;;;;4937804;29;20460;-70
2022/09/17 03:18:17;;;;;;;0.80;0.60;;;12.20;79.90;;;;;;4936435;29;20452;-71
2022/09/17 03:20:45;;;;;;;0.70;0.60;;;12.20;80.10;;;;;;4936295;29;20487;-71
2022/09/17 03:23:12;;;;;;;1.20;0.70;;;12.20;79.90;;;;;;4936865;29;20448;-71
2022/09/17 03:25:38;;;;;;;0.80;0.60;;;12.10;79.80;;;;;;4936416;29;20515;-71
2022/09/17 03:28:05;;;;;;;0.80;0.70;;;12.10;80.10;;;;;;4936778;29;20452;-70
2022/09/17 03:30:31;;;;;;;0.70;0.57;;;12.10;80.00;;;;;;4936212;29;20448;-71
2022/09/17 03:32:58;;;;;;;0.90;0.70;;;12.10;80.20;;;;;;4936231;29;20483;-71
2022/09/17 03:35:26;;;;;;;0.80;0.70;;;12.10;80.30;;;;;;4936254;29;20514;-70
2022/09/17 03:37:53;;;;;;;0.90;0.80;;;12.10;80.50;;;;;;4936193;29;20533;-70
2022/09/17 03:40:20;;;;;;;1.37;1.00;;;12.20;80.50;;;;;;4936140;29;20609;-72
2022/09/17 03:42:46;;;;;;;0.80;0.70;;;12.20;80.10;;;;;;4936052;29;20562;-70
2022/09/17 03:45:13;;;;;;;0.77;0.60;;;12.10;80.60;;;;;;4936155;29;20456;-71
2022/09/17 03:47:40;;;;;;;0.90;0.57;;;12.00;80.40;;;;;;4935822;29;20869;-71
2022/09/17 03:50:07;;;;;;;0.70;0.60;;;11.90;80.70;;;;;;4936110;29;20460;-70
2022/09/17 03:52:35;;;;;;;1.13;0.70;;;12.00;80.30;;;;;;4936028;29;20535;-71
2022/09/17 03:55:02;;;;;;;0.70;0.60;;;12.10;80.40;;;;;;4939152;29;20806;-71
2022/09/17 03:57:29;;;;;;;1.20;0.60;;;12.10;80.30;;;;;;4939937;29;20451;-70
2022/09/17 03:59:55;;;;;;;0.80;0.70;;;12.10;80.20;;;;;;4939892;29;20515;-71
2022/09/17 04:02:22;;;;;;;0.70;0.60;;;12.10;80.30;;;;;;4939721;29;20469;-70
2022/09/17 04:04:49;;;;;;;0.90;0.67;;;12.10;80.00;;;;;;4939794;29;20444;-71
2022/09/17 04:07:15;;;;;;;1.90;0.70;;;12.20;79.70;;;;;;4939775;29;20479;-70
2022/09/17 04:09:43;;;;;;;0.73;0.60;;;12.20;79.80;;;;;;4939770;29;20448;-71
2022/09/17 04:12:10;;;;;;;0.70;0.70;;;12.30;79.60;;;;;;4939620;29;20464;-71
2022/09/17 04:14:36;;;;;;;0.80;0.63;;;12.30;79.50;;;;;;4939621;29;20444;-70
2022/09/17 04:17:03;;;;;;;0.70;0.70;;;12.30;79.30;;;;;;4939586;29;20503;-71
2022/09/17 04:19:30;;;;;;;0.80;0.67;;;12.20;79.00;;;;;;4939283;29;20481;-71
2022/09/17 04:21:56;;;;;;;0.70;0.60;;;12.20;79.30;;;;;;4939388;29;20498;-71
2022/09/17 04:24:23;;;;;;;0.80;0.70;;;12.30;79.20;;;;;;4939425;29;20459;-71
2022/09/17 04:26:51;;;;;;;1.23;1.00;;;12.30;79.10;;;;;;4939424;29;20507;-71
2022/09/17 04:29:18;;;;;;;1.20;1.10;;;12.30;79.10;;;;;;4939358;29;20511;-70
2022/09/17 04:31:44;;;;;;;1.00;0.80;;;12.30;79.10;;;;;;4938926;29;20547;-70
2022/09/17 04:34:11;;;;;;;0.70;0.50;;;12.20;78.90;;;;;;4938885;29;20459;-71
2022/09/17 04:36:38;;;;;;;1.23;0.70;;;12.20;79.00;;;;;;4939195;29;20456;-71
2022/09/17 04:39:04;;;;;;;0.70;0.60;;;12.10;79.20;;;;;;4938880;29;20876;-70
2022/09/17 04:41:31;;;;;;;1.33;0.60;;;12.10;79.40;;;;;;4938722;29;20523;-71
2022/09/17 04:43:59;;;;;;;0.90;0.80;;;11.80;79.80;;;;;;4939127;29;20483;-71
2022/09/17 04:46:25;;;;;;;0.90;0.70;;;11.80;80.40;;;;;;4939106;29;20451;-71
2022/09/17 04:48:52;;;;;;;0.70;0.70;;;11.80;80.20;;;;;;4939040;29;20455;-70
2022/09/17 04:51:19;;;;;;;0.70;0.60;;;11.80;80.40;;;;;;4938909;29;20463;-70
2022/09/17 04:53:45;;;;;;;0.90;0.60;;;11.80;80.60;;;;;;4938966;29;20511;-70
2022/09/17 04:56:12;;;;;;;0.80;0.60;;;11.80;80.50;;;;;;4938927;29;20498;-70
2022/09/17 04:58:39;;;;;;;0.93;0.73;;;11.90;80.20;;;;;;4938920;29;20506;-71
2022/09/17 05:01:07;;;;;;;0.90;0.60;;;12.00;80.00;;;;;;4938524;29;20579;-71
2022/09/17 05:03:33;;;;;;;0.83;0.60;;;12.00;79.70;;;;;;4938844;29;20432;-71
2022/09/17 05:06:00;;;;;;;0.83;0.73;;;12.10;79.80;;;;;;4938498;29;20483;-71
2022/09/17 05:08:27;;;;;;;0.70;0.57;;;12.10;79.60;;;;;;4938931;29;20495;-70
2022/09/17 05:10:54;;;;;;;0.70;0.60;;;12.00;79.80;;;;;;4938645;29;20467;-71
2022/09/17 05:13:20;;;;;;;0.90;0.80;;;12.00;79.90;;;;;;4938686;29;20499;-71
2022/09/17 05:15:47;;;;;;;1.00;0.70;;;12.10;79.90;;;;;;4939039;29;20456;-72
2022/09/17 05:18:15;;;;;;;1.50;0.80;;;12.10;79.40;;;;;;4938706;29;20559;-71
2022/09/17 05:20:43;;;;;;;0.87;0.60;;;12.10;79.60;;;;;;4938336;29;20550;-70
2022/09/17 05:23:10;;;;;;;0.80;0.70;;;12.00;79.40;;;;;;4938457;29;20455;-71
2022/09/17 05:25:36;;;;;;;0.83;0.70;;;11.90;79.60;;;;;;4938409;29;20455;-70
2022/09/17 05:28:03;;;;;;;0.90;0.83;;;11.90;79.40;;;;;;4938360;29;20503;-70
2022/09/17 05:30:30;;;;;;;1.27;0.80;;;11.90;79.50;;;;;;4938258;29;20569;-70
2022/09/17 05:33:00;;;;;;;0.70;0.70;;;11.90;79.60;;;;;;4937919;29;21036;-70
2022/09/17 05:35:29;;;;;;;0.80;0.70;;;11.70;80.10;;;;;;4938169;29;20448;-71
2022/09/17 05:37:58;;;;;;;0.73;0.70;;;11.80;80.30;;;;;;4938231;29;20452;-70
2022/09/17 05:40:25;;;;;;;0.80;0.70;;;11.90;79.80;;;;;;4938068;29;21003;-70
2022/09/17 05:42:51;;;;;;;0.87;0.67;;;12.00;79.60;;;;;;4937690;29;21070;-70
2022/09/17 05:45:18;;;;;;;0.70;0.60;;;12.00;79.20;;;;;;4937721;29;20947;-70
2022/09/17 05:47:44;;;;;;;0.70;0.60;;;12.10;79.30;;;;;;4938060;29;20444;-70
2022/09/17 05:50:11;;;;;;;0.73;0.63;;;12.30;79.10;;;;;;4938004;29;20452;-70
2022/09/17 05:52:39;;;;;;;0.80;0.80;;;12.60;78.10;;;;;;4937935;29;20522;-70
2022/09/17 05:55:06;;;;;;;1.00;0.70;;;12.80;76.70;;;;;;4937586;29;20861;-70
2022/09/17 05:57:33;;;;;;;1.23;0.70;;;12.90;76.10;;;;;;4937837;29;20503;-70
2022/09/17 05:59:59;;;;;;;0.80;0.77;;;12.90;76.20;;;;;;4937760;29;20452;-70
2022/09/17 06:02:26;;;;;;;0.90;0.80;;;12.90;76.30;;;;;;4937278;29;20571;-70
2022/09/17 06:04:53;;;;;;;0.77;0.67;;;13.10;75.80;;;;;;4937676;29;20461;-70
2022/09/17 06:07:19;;;;;;;0.73;0.67;;;13.50;75.20;;;;;;4937296;29;20819;-70
2022/09/17 06:09:47;;;;;;;0.80;0.70;;;14.40;73.00;;;;;;4937291;29;20452;-70
2022/09/17 06:12:14;;;;;;;1.03;0.83;;;15.50;69.60;;;;;;4937477;29;20472;-70
2022/09/17 06:14:40;;;;;;;0.70;0.60;;;16.40;67.20;;;;;;4937427;29;20448;-73
2022/09/17 06:17:07;;;;;;;1.10;0.60;;;17.20;64.40;;;;;;4937299;29;20447;-76
2022/09/17 06:19:34;;;;;;;0.90;0.90;;;17.70;63.40;;;;;;4937402;29;20459;-77
2022/09/17 06:22:01;;;;;;;0.80;0.80;;;18.00;62.60;;;;;;4937249;29;20488;-75
2022/09/17 06:24:27;;;;;;;1.00;0.90;;;18.40;61.00;;;;;;4937298;29;20536;-76
2022/09/17 06:26:55;;;;;;;1.03;0.70;;;18.60;61.20;;;;;;4937356;29;20454;-73
2022/09/17 06:29:22;;;;;;;0.70;0.60;;;18.90;59.20;;;;;;4937291;29;20503;-73
2022/09/17 06:31:49;;;;;;;0.80;0.70;;;18.60;59.40;;;;;;4937090;29;20460;-73
2022/09/17 06:34:16;;;;;;;0.80;0.70;;;18.20;60.10;;;;;;4937127;29;20463;-73
2022/09/17 06:36:43;;;;;;;0.80;0.73;;;17.80;61.20;;;;;;4937057;29;20494;-72
2022/09/17 06:39:10;;;;;;;0.80;0.77;;;17.20;62.10;;;;;;4937040;29;20870;-72
2022/09/17 06:41:37;;;;;;;1.30;1.20;;;16.70;63.50;;;;;;4936812;29;20488;-72
2022/09/17 06:44:05;;;;;;;0.80;0.73;;;16.30;64.60;;;;;;4936957;29;20456;-73
2022/09/17 06:46:38;;;;;;;0.70;0.60;;;16.10;65.80;;;;;;4936927;29;20499;-72
2022/09/17 06:49:05;;;;;;;0.70;0.57;;;16.00;66.10;;;;;;4936901;29;20447;-77
2022/09/17 06:51:31;;;;;;;1.20;0.73;;;15.70;66.50;;;;;;4936815;29;20499;-72
2022/09/17 06:53:58;;;;;;;0.80;0.70;;;15.50;67.00;;;;;;4936800;29;20514;-71
2022/09/17 06:56:25;;;;;;;1.00;0.80;;;15.10;68.20;;;;;;4936742;29;20503;-73
2022/09/17 06:58:51;;;;;;;0.90;0.80;;;14.90;69.30;;;;;;4936752;29;20499;-71
2022/09/17 07:01:19;;;;;;;0.90;0.73;;;14.70;69.90;;;;;;4936396;29;20878;-72
2022/09/17 07:03:48;;;;;;;0.80;0.70;;;14.30;70.90;;;;;;4936740;29;20455;-72
2022/09/17 07:06:15;;;;;;;0.90;0.70;;;14.20;71.30;;;;;;4936354;29;21002;-72
2022/09/17 07:08:42;;;;;;;1.00;0.80;;;14.10;72.50;;;;;;4936824;29;20456;-71
2022/09/17 07:11:08;;;;;;;0.70;0.60;;;13.90;72.80;;;;;;4936204;29;20475;-72
2022/09/17 07:13:35;;;;;;;0.70;0.60;;;13.60;73.70;;;;;;4936519;29;20463;-72
2022/09/17 07:16:04;;;;;;;0.80;0.70;;;13.40;75.10;;;;;;4936497;29;20808;-72
2022/09/17 07:18:32;;;;;;;0.80;0.63;;;13.20;75.50;;;;;;4936506;29;20493;-72
2022/09/17 07:21:01;;;;;;;0.70;0.60;;;13.00;76.50;;;;;;4936380;29;20475;-73
2022/09/17 07:23:29;;;;;;;0.80;0.70;;;12.80;77.30;;;;;;4936323;29;20563;-72
2022/09/17 07:25:57;;;;;;;1.23;0.70;;;12.60;78.30;;;;;;4936792;29;20452;-72
2022/09/17 07:28:25;;;;;;;0.70;0.60;;;12.50;78.40;;;;;;4936098;29;20951;-73
2022/09/17 07:30:53;;;;;;;0.77;0.63;;;12.40;78.90;;;;;;4935969;29;20987;-72
2022/09/17 07:33:22;;;;;;;0.80;0.70;;;12.40;79.50;;;;;;4936019;29;20441;-73
2022/09/17 07:35:54;;;;;;;0.73;0.60;;;12.40;79.70;;;;;;4936428;29;20447;-73
2022/09/17 07:38:21;;;;;;;0.70;0.60;;;12.40;79.30;;;;;;4936510;29;20476;-74
2022/09/17 07:40:56;;;;;;;1.00;0.80;;;12.50;79.40;;;;;;4936452;29;20475;-73
2022/09/17 07:43:23;;;;;;;0.80;0.60;;;12.50;79.50;;;;;;4936512;29;20478;-73
2022/09/17 07:45:50;;;;;;;0.80;0.80;;;12.50;79.20;;;;;;4936217;29;20444;-74
2022/09/17 07:48:17;;;;;;;0.93;0.70;;;12.50;80.10;;;;;;4935841;29;20947;-71
2022/09/17 07:50:43;;;;;;;0.80;0.60;;;12.60;80.10;;;;;;4936124;29;20476;-73
2022/09/17 07:53:11;;;;;;;0.70;0.60;;;12.70;80.00;;;;;;4936136;29;20444;-73
2022/09/17 07:55:38;;;;;;;0.80;0.60;;;12.50;80.50;;;;;;4936112;29;20632;-73
2022/09/17 07:58:05;;;;;;;0.80;0.57;;;12.40;80.70;;;;;;4936101;29;20451;-74
2022/09/17 08:00:32;;;;;;;0.70;0.60;;;12.30;81.10;;;;;;4935929;29;20464;-71
2022/09/17 08:02:58;;;;;;;0.90;0.70;;;12.20;81.30;;;;;;4935538;29;20567;-72
2022/09/17 08:05:26;;;;;;;0.90;0.60;;;12.20;81.70;;;;;;4935627;29;20864;-72
2022/09/17 08:07:54;;;;;;;0.80;0.70;;;12.20;81.90;;;;;;4935945;29;20458;-72
2022/09/17 08:10:22;;;;;;;0.70;0.60;;;12.20;82.20;;;;;;4935944;29;20506;-70
2022/09/17 08:12:50;;;;;;;0.70;0.60;;;12.10;82.20;;;;;;4935881;29;20523;-70
2022/09/17 08:15:17;;;;;;;0.70;0.60;;;12.30;82.40;;;;;;4935852;29;20523;-70
2022/09/17 08:17:44;;;;;;;0.70;0.60;;;12.40;82.40;;;;;;4935976;29;20491;-70
2022/09/17 08:20:11;;;;;;;0.70;0.60;;;12.30;82.10;;;;;;4935828;29;20511;-70
2022/09/17 08:22:38;;;;;;;0.80;0.70;;;12.40;81.90;;;;;;4935698;29;20542;-71
2022/09/17 08:25:06;;;;;;;0.90;0.60;;;12.40;81.90;;;;;;4935489;29;20872;-71
2022/09/17 08:27:34;;;;;;;0.80;0.60;;;12.40;82.00;;;;;;4935794;29;20460;-71
2022/09/17 08:30:01;;;;;;;0.70;0.70;;;12.30;82.20;;;;;;4935720;29;20459;-70
2022/09/17 08:32:30;;;;;;;0.80;0.70;;;12.30;82.60;;;;;;4935649;29;20479;-71
2022/09/17 08:34:56;;;;;;;0.70;0.70;;;12.40;82.30;;;;;;4935676;29;20519;-70
2022/09/17 08:37:23;;;;;;;0.80;0.70;;;12.40;82.50;;;;;;4935699;29;20539;-71
2022/09/17 08:39:50;;;;;;;0.80;0.70;;;12.50;82.70;;;;;;4936070;29;20452;-72
2022/09/17 08:42:24;;;;;;;0.90;0.70;;;12.50;82.20;;;;;;4939047;29;20487;-72
2022/09/17 08:44:54;;;;;;;0.80;0.70;;;12.50;82.40;;;;;;4939163;29;20439;-72
2022/09/17 08:47:26;;;;;;;1.00;0.70;;;12.50;82.80;;;;;;4939046;29;20448;-72
2022/09/17 08:49:55;;;;;;;0.70;0.60;;;12.70;83.00;;;;;;4939128;29;20436;-72
2022/09/17 08:52:48;;;;;;;0.80;0.60;;;12.70;81.40;;;;;;4938892;29;20515;-72
2022/09/17 08:55:28;;;;;;;0.80;0.80;;;12.80;81.20;;;;;;4939456;29;20448;-72
2022/09/17 08:58:02;;;;;;;1.13;0.70;;;12.80;81.40;;;;;;4938975;29;20472;-72
2022/09/17 09:00:36;;;;;;;0.70;0.60;;;12.80;81.20;;;;;;4938895;29;20459;-72
2022/09/17 09:03:21;;;;;;;0.70;0.63;;;13.00;81.10;;;;;;4938743;29;20511;-72
2022/09/17 09:05:51;;;;;;;0.70;0.70;;;12.90;81.00;;;;;;4938834;29;20495;-71
2022/09/17 09:08:26;;;;;;;1.03;0.80;;;13.10;81.90;;;;;;4938713;29;20460;-72
2022/09/17 09:10:54;;;;;;;0.87;0.70;;;13.50;80.70;;;;;;4938738;29;20482;-72
2022/09/17 09:13:27;;;;;;;0.90;0.80;;;13.70;79.40;;;;;;4938741;29;20486;-72
2022/09/17 09:15:59;;;;;;;0.90;0.70;;;13.90;79.40;;;;;;4939804;29;20448;-71
2022/09/17 09:18:29;;;;;;;0.80;0.70;;;14.00;78.30;;;;;;4938619;29;20528;-72
2022/09/17 09:21:08;;;;;;;0.73;0.73;;;14.20;77.60;;;;;;4938426;29;20543;-72
2022/09/17 09:23:47;;;;;;;1.10;0.90;;;14.40;76.70;;;;;;4938445;29;20472;-72
2022/09/17 09:26:18;;;;;;;0.90;0.80;;;14.50;74.80;;;;;;4938139;29;20988;-72
2022/09/17 09:29:00;;;;;;;1.27;0.70;;;14.40;75.60;;;;;;4938371;29;20519;-72
2022/09/17 09:31:49;;;;;;;1.20;0.80;;;14.50;74.90;;;;;;4938184;29;20475;-72
2022/09/17 09:34:17;;;;;;;0.80;0.70;;;14.40;75.00;;;;;;4938284;29;20440;-72
2022/09/17 09:36:44;;;;;;;0.80;0.70;;;14.40;75.00;;;;;;4938190;29;20452;-72
2022/09/17 09:39:17;;;;;;;0.90;0.70;;;14.40;75.20;;;;;;4938131;29;20519;-73
2022/09/17 09:41:47;;;;;;;1.00;0.80;;;14.40;74.30;;;;;;4938087;29;20487;-72
2022/09/17 09:44:15;;;;;;;0.83;0.80;;;14.20;75.10;;;;;;4938081;29;20515;-72
2022/09/17 09:47:01;;;;;;;0.90;0.80;;;14.20;74.60;;;;;;4937695;29;21022;-72
2022/09/17 09:49:42;;;;;;;1.00;0.90;;;14.30;75.90;;;;;;4937733;29;20843;-72
2022/09/17 09:52:22;;;;;;;0.87;0.87;;;14.60;74.40;;;;;;4936914;29;20523;-72
2022/09/17 09:55:01;;;;;;;0.80;0.70;;;14.60;73.40;;;;;;4937927;29;20439;-72
2022/09/17 09:57:40;;;;;;;2.03;0.80;;;14.70;74.00;;;;;;4937580;29;20436;-72
2022/09/17 10:00:25;;;;;;;1.13;0.80;;;14.60;74.70;;;;;;4937804;29;20503;-72
2022/09/17 10:02:59;;;;;;;0.80;0.77;;;14.50;74.10;;;;;;4937549;29;20488;-72
2022/09/17 10:05:25;;;;;;;1.00;0.90;;;14.30;74.40;;;;;;4937736;29;20436;-72
2022/09/17 10:07:53;;;;;;;0.80;0.73;;;14.20;74.90;;;;;;4937656;29;20452;-72
2022/09/17 10:10:20;;;;;;;0.90;0.70;;;14.20;75.40;;;;;;4937534;29;20952;-72
2022/09/17 10:12:46;;;;;;;0.80;0.80;;;14.20;74.50;;;;;;4937504;29;20468;-72
2022/09/17 10:15:25;;;;;;;0.80;0.80;;;14.30;73.40;;;;;;4937713;29;20538;-72
2022/09/17 10:18:11;;;;;;;0.70;0.60;;;14.40;73.90;;;;;;4937732;29;20444;-72
2022/09/17 10:20:49;;;;;;;0.80;0.70;;;14.60;72.60;;;;;;4937378;29;20519;-72
2022/09/17 10:23:16;;;;;;;0.80;0.73;;;14.50;72.10;;;;;;4936978;29;20925;-72
2022/09/17 10:25:43;;;;;;;0.80;0.70;;;14.50;72.70;;;;;;4937271;29;20503;-72
2022/09/17 10:28:32;;;;;;;0.70;0.70;;;14.50;71.80;;;;;;4937258;29;20444;-72
2022/09/17 10:31:00;;;;;;;1.20;0.90;;;14.60;72.90;;;;;;4937149;29;20507;-72
2022/09/17 10:33:31;;;;;;;1.00;0.70;;;14.80;71.70;;;;;;4937213;29;20447;-72
2022/09/17 10:36:05;;;;;;;0.70;0.70;;;14.80;69.40;;;;;;4937223;29;20432;-72
2022/09/17 10:38:34;;;;;;;0.70;0.70;;;14.80;70.10;;;;;;4936747;29;20927;-72
2022/09/17 10:41:20;;;;;;;0.80;0.70;;;14.80;69.20;;;;;;4936966;29;20472;-72
2022/09/17 10:43:47;;;;;;;1.00;0.70;;;14.90;69.50;;;;;;4936996;29;20510;-72
2022/09/17 10:46:17;;;;;;;0.90;0.60;;;15.10;69.80;;;;;;4936894;29;20448;-72
2022/09/17 10:48:54;;;;;;;0.80;0.70;;;15.40;69.50;;;;;;4936947;29;20444;-72
2022/09/17 10:51:24;;;;;;;0.70;0.60;;;15.50;66.80;;;;;;4936862;29;20467;-72
2022/09/17 10:54:14;;;;;;;0.80;0.63;;;15.60;67.40;;;;;;4937090;29;20988;-72
2022/09/17 10:56:46;;;;;;;0.70;0.70;;;15.70;67.90;;;;;;4936787;29;20444;-72
2022/09/17 10:59:29;;;;;;;0.80;0.60;;;15.70;66.70;;;;;;4936459;29;20972;-72
2022/09/17 11:02:09;;;;;;;0.70;0.60;;;15.80;66.10;;;;;;4936804;29;20487;-72
2022/09/17 11:04:50;;;;;;;0.80;0.60;;;15.80;66.10;;;;;;4936891;29;20444;-73
2022/09/17 11:07:41;;;;;;;0.80;0.63;;;15.80;66.60;;;;;;4936990;29;20442;-72
2022/09/17 11:10:25;;;;;;;0.80;0.70;;;15.90;66.40;;;;;;4936638;29;20436;-72
2022/09/17 11:13:05;;;;;;;0.90;0.70;;;15.80;65.60;;;;;;4936579;29;20484;-73
2022/09/17 11:15:43;;;;;;;0.70;0.60;;;15.80;65.60;;;;;;4936986;29;20471;-73
2022/09/17 11:18:29;;;;;;;0.80;0.70;;;15.90;65.10;;;;;;4936470;29;20924;-72
2022/09/17 11:21:30;;;;;;;0.70;0.67;;;16.30;64.70;;;;;;4936605;29;20464;-72
2022/09/17 11:24:16;;;;;;;0.80;0.70;;;16.50;63.70;;;;;;4921559;29;21003;-73
2022/09/17 11:26:50;;;;;;;0.80;0.70;;;16.20;62.30;;;;;;4936731;29;20432;-73
2022/09/17 11:29:35;;;;;;;0.70;0.60;;;16.30;62.80;;;;;;4937630;29;20444;-72
2022/09/17 11:32:10;;;;;;;0.80;0.70;;;16.40;61.80;;;;;;4937243;29;20480;-73
2022/09/17 11:34:42;;;;;;;0.70;0.60;;;16.10;62.60;;;;;;4936620;29;20437;-73
2022/09/17 11:37:16;;;;;;;0.80;0.70;;;16.20;62.80;;;;;;4937077;29;20452;-73
2022/09/17 11:39:48;;;;;;;0.70;0.60;;;16.40;63.00;;;;;;4936856;29;20440;-73
2022/09/17 11:42:22;;;;;;;0.80;0.60;;;16.70;61.10;;;;;;4936952;29;20471;-73
2022/09/17 11:44:54;;;;;;;0.80;0.80;;;16.70;59.20;;;;;;4936545;29;20436;-73
2022/09/17 11:47:25;;;;;;;0.70;0.60;;;16.80;59.70;;;;;;4937567;29;20448;-73
2022/09/17 11:49:58;;;;;;;0.83;0.70;;;17.00;60.10;;;;;;4936416;29;20436;-73
2022/09/17 11:52:32;;;;;;;1.03;0.77;;;17.00;59.30;;;;;;4936207;29;20531;-74
2022/09/17 11:55:04;;;;;;;0.70;0.60;;;16.70;59.60;;;;;;4936267;29;20424;-73
2022/09/17 11:57:35;;;;;;;0.80;0.70;;;16.70;60.30;;;;;;4936083;29;20488;-73
2022/09/17 12:00:07;;;;;;;0.77;0.60;;;16.70;59.10;;;;;;4935721;29;20923;-73
2022/09/17 12:02:45;;;;;;;0.70;0.70;;;16.80;59.60;;;;;;4935732;29;20487;-73
2022/09/17 12:05:18;;;;;;;0.70;0.60;;;16.90;57.90;;;;;;4935976;29;20535;-71
2022/09/17 12:07:54;;;;;;;0.70;0.60;;;17.00;58.30;;;;;;4935970;29;20495;-71
2022/09/17 12:10:34;;;;;;;0.80;0.60;;;17.30;57.30;;;;;;4935964;29;20436;-71
2022/09/17 12:13:07;;;;;;;0.90;0.70;;;17.70;57.90;;;;;;4935677;29;20908;-71
2022/09/17 12:15:36;;;;;;;0.97;0.60;;;18.00;55.80;;;;;;4937465;29;20500;-71
2022/09/17 12:18:13;;;;;;;1.00;0.60;;;17.80;56.30;;;;;;4939561;29;20448;-71
2022/09/17 12:20:43;;;;;;;0.70;0.60;;;17.50;59.50;;;;;;4939624;29;20436;-70
2022/09/17 12:23:15;;;;;;;0.70;0.60;;;17.20;62.30;;;;;;4939570;29;20487;-71
2022/09/17 12:25:49;;;;;;;0.80;0.70;;;16.90;64.20;;;;;;4939802;29;20436;-71
2022/09/17 12:28:21;;;;;;;1.03;0.90;;;16.70;65.10;;;;;;4939543;29;20436;-71
2022/09/17 12:30:55;;;;;;;0.80;0.70;;;16.60;65.90;;;;;;4939357;29;20894;-70
2022/09/17 12:33:32;;;;;;;0.70;0.60;;;16.50;64.00;;;;;;4939508;29;20440;-71
2022/09/17 12:36:23;;;;;;;0.70;0.60;;;16.30;65.40;;;;;;4939889;29;20436;-71
2022/09/17 12:39:20;;;;;;;0.70;0.60;;;16.40;64.30;;;;;;4936742;29;20589;-71
2022/09/17 12:41:58;;;;;;;1.00;0.70;;;16.50;63.40;;;;;;4914729;29;20495;-71
2022/09/17 12:44:51;;;;;;;0.80;0.60;;;16.80;62.60;;;;;;4939153;29;20467;-72
2022/09/17 12:47:46;;;;;;;0.80;0.60;;;17.00;62.80;;;;;;4939266;29;20436;-71
2022/09/17 12:50:25;;;;;;;0.70;0.60;;;17.10;59.40;;;;;;4926906;29;20514;-71
2022/09/17 12:53:13;;;;;;;0.70;0.63;;;16.90;59.90;;;;;;4939108;29;20843;-71
2022/09/17 12:55:58;;;;;;;0.80;0.70;;;16.70;63.00;;;;;;4939170;29;20854;-71
2022/09/17 12:58:38;;;;;;;0.90;0.60;;;16.40;65.90;;;;;;4939045;29;20436;-71
2022/09/17 13:01:11;;;;;;;1.20;0.70;;;16.20;68.00;;;;;;4938768;29;20535;-71
2022/09/17 13:03:42;;;;;;;0.70;0.60;;;16.00;68.40;;;;;;4938956;29;20472;-71
2022/09/17 13:06:43;;;;;;;0.70;0.60;;;15.50;69.10;;;;;;4939073;29;20892;-71
2022/09/17 13:09:46;;;;;;;0.70;0.60;;;15.00;70.10;;;;;;4914146;29;20839;-71
2022/09/17 13:12:25;;;;;;;0.80;0.60;;;14.40;72.40;;;;;;4926421;29;20479;-71
2022/09/17 13:15:19;;;;;;;0.80;0.67;;;14.20;74.50;;;;;;4938358;29;20851;-71
2022/09/17 13:17:52;;;;;;;0.80;0.70;;;13.80;75.80;;;;;;4938652;29;20492;-71
2022/09/17 13:20:26;;;;;;;0.70;0.57;;;13.30;75.90;;;;;;4938591;29;20472;-71
2022/09/17 13:22:56;;;;;;;0.70;0.70;;;12.90;78.00;;;;;;4938521;29;20436;-71
2022/09/17 13:25:24;;;;;;;0.70;0.60;;;12.50;80.50;;;;;;4938480;29;20535;-71
2022/09/17 13:28:07;;;;;;;1.10;1.00;;;12.20;81.10;;;;;;4938271;29;20455;-71
2022/09/17 13:30:58;;;;;;;0.70;0.60;;;11.80;83.20;;;;;;4938398;29;20436;-70
2022/09/17 13:33:51;;;;;;;0.70;0.60;;;11.80;84.50;;;;;;4938341;29;20496;-71
2022/09/17 13:36:41;;;;;;;0.70;0.60;;;12.10;86.20;;;;;;4938234;29;20447;-71
2022/09/17 13:39:10;;;;;;;0.70;0.50;;;12.70;86.30;;;;;;4938309;29;20519;-71
2022/09/17 13:41:40;;;;;;;0.80;0.60;;;13.30;85.70;;;;;;4938138;29;20472;-71
2022/09/17 13:44:09;;;;;;;0.80;0.60;;;14.00;84.10;;;;;;4938075;29;20535;-71
2022/09/17 13:46:38;;;;;;;0.70;0.60;;;14.50;79.60;;;;;;4938006;29;20463;-71
2022/09/17 13:49:14;;;;;;;0.73;0.67;;;15.00;80.60;;;;;;4937978;29;20474;-71
2022/09/17 13:51:52;;;;;;;0.70;0.60;;;15.50;78.60;;;;;;4938214;29;20472;-71
2022/09/17 13:54:22;;;;;;;0.80;0.60;;;15.80;77.30;;;;;;4938860;29;20432;-72
2022/09/17 13:57:08;;;;;;;0.70;0.67;;;16.10;73.90;;;;;;4937937;29;20511;-71
2022/09/17 13:59:37;;;;;;;0.70;0.60;;;16.10;73.60;;;;;;4937410;29;20460;-71
2022/09/17 14:02:30;;;;;;;0.80;0.60;;;16.20;75.00;;;;;;4937873;29;20566;-71
2022/09/17 14:05:33;;;;;;;0.77;0.60;;;16.50;74.30;;;;;;4930394;29;20484;-71
2022/09/17 14:08:29;;;;;;;0.80;0.60;;;16.70;73.20;;;;;;4937443;29;20447;-71
2022/09/17 14:10:58;;;;;;;0.70;0.60;;;16.60;72.50;;;;;;4937699;29;20483;-71
2022/09/17 14:13:45;;;;;;;0.70;0.60;;;16.70;72.70;;;;;;4937736;29;20451;-71
2022/09/17 14:16:35;;;;;;;0.70;0.60;;;16.70;72.70;;;;;;4937601;29;20440;-72
2022/09/17 14:19:05;;;;;;;0.90;0.60;;;16.80;70.40;;;;;;4937530;29;20444;-71
2022/09/17 14:21:33;;;;;;;0.80;0.70;;;16.80;72.00;;;;;;4937382;29;20475;-71
2022/09/17 14:24:02;;;;;;;0.70;0.60;;;17.50;71.80;;;;;;4937346;29;20475;-71
2022/09/17 14:26:57;;;;;;;0.90;0.60;;;17.70;69.40;;;;;;4937403;29;20503;-71
2022/09/17 14:29:41;;;;;;;0.80;0.70;;;18.00;67.80;;;;;;4937143;29;20879;-71
2022/09/17 14:32:19;;;;;;;0.70;0.60;;;18.20;67.30;;;;;;4938068;29;20587;-71
2022/09/17 14:34:46;;;;;;;0.70;0.60;;;17.80;67.80;;;;;;4937279;29;20522;-71
2022/09/17 14:37:17;;;;;;;0.80;0.70;;;17.20;68.40;;;;;;4936869;29;20948;-71
2022/09/17 14:39:44;;;;;;;0.70;0.60;;;16.50;69.90;;;;;;4936876;29;20448;-71
2022/09/17 14:42:16;;;;;;;0.70;0.60;;;16.00;71.30;;;;;;4937202;29;20537;-71
2022/09/17 14:44:51;;;;;;;1.00;0.80;;;15.90;73.00;;;;;;4936982;29;20467;-71
2022/09/17 14:47:20;;;;;;;0.70;0.60;;;15.90;72.60;;;;;;4937073;29;20436;-72
2022/09/17 14:49:47;;;;;;;0.70;0.60;;;15.90;73.00;;;;;;4937266;29;20467;-72
2022/09/17 14:52:26;;;;;;;0.70;0.60;;;16.00;73.40;;;;;;4936887;29;20479;-71
2022/09/17 14:55:17;;;;;;;0.70;0.60;;;15.90;73.20;;;;;;4936777;29;20428;-71
2022/09/17 14:57:45;;;;;;;1.20;0.70;;;15.80;72.90;;;;;;4937004;29;20519;-71
2022/09/17 15:00:21;;;;;;;0.70;0.60;;;15.50;72.00;;;;;;4936865;29;20928;-72
2022/09/17 15:02:54;;;;;;;0.80;0.70;;;15.50;74.40;;;;;;4936700;29;20480;-71
2022/09/17 15:05:30;;;;;;;0.70;0.60;;;15.40;73.20;;;;;;4936735;29;20508;-71
2022/09/17 15:08:12;;;;;;;0.70;0.60;;;15.90;74.90;;;;;;4937588;29;20448;-71
2022/09/17 15:10:46;;;;;;;0.70;0.60;;;16.10;71.10;;;;;;4936592;29;20444;-71
2022/09/17 15:13:15;;;;;;;0.80;0.60;;;16.10;72.00;;;;;;4936407;29;20905;-72
2022/09/17 15:15:52;;;;;;;0.70;0.60;;;15.90;70.50;;;;;;4937838;29;20456;-71
2022/09/17 15:18:21;;;;;;;0.80;0.70;;;16.30;71.10;;;;;;4936621;29;20440;-72
2022/09/17 15:20:48;;;;;;;0.70;0.60;;;16.40;70.40;;;;;;4936386;29;20527;-71
2022/09/17 15:23:18;;;;;;;0.90;0.70;;;16.30;70.50;;;;;;4936443;29;21007;-71
2022/09/17 15:25:47;;;;;;;0.90;0.73;;;16.20;71.40;;;;;;4936429;29;20488;-71
2022/09/17 15:28:25;;;;;;;0.80;0.70;;;16.00;70.50;;;;;;4936406;29;20456;-71
2022/09/17 15:30:52;;;;;;;0.70;0.60;;;15.60;71.40;;;;;;4936382;29;20482;-73
2022/09/17 15:33:22;;;;;;;0.70;0.57;;;15.30;70.50;;;;;;4936397;29;20526;-74
2022/09/17 15:36:00;;;;;;;0.90;0.60;;;15.20;70.30;;;;;;4936481;29;20440;-73
2022/09/17 15:38:28;;;;;;;0.80;0.70;;;15.00;70.70;;;;;;4936432;29;20428;-73
2022/09/17 15:41:10;;;;;;;0.70;0.60;;;15.00;71.50;;;;;;4936284;29;20480;-73
2022/09/17 15:43:40;;;;;;;0.80;0.70;;;15.10;72.30;;;;;;4936424;29;20468;-73
2022/09/17 15:46:22;;;;;;;0.70;0.60;;;15.20;72.60;;;;;;4936927;29;20463;-73
2022/09/17 15:48:50;;;;;;;0.70;0.60;;;15.10;72.50;;;;;;4936231;29;20495;-74
2022/09/17 15:51:25;;;;;;;1.00;0.70;;;15.10;72.50;;;;;;4938891;29;20468;-73
2022/09/17 15:53:53;;;;;;;0.80;0.60;;;14.90;71.90;;;;;;4940278;29;20441;-71
2022/09/17 15:56:24;;;;;;;0.80;0.70;;;14.60;72.80;;;;;;4940168;29;20818;-72
2022/09/17 15:59:00;;;;;;;1.17;0.80;;;14.60;73.30;;;;;;4940305;29;20492;-71
2022/09/17 16:01:54;;;;;;;0.70;0.60;;;14.60;73.80;;;;;;4939649;29;20991;-71
2022/09/17 16:04:24;;;;;;;0.80;0.60;;;14.60;73.20;;;;;;4940007;29;20511;-72
2022/09/17 16:06:59;;;;;;;1.00;0.70;;;14.60;74.10;;;;;;4939957;29;20491;-71
2022/09/17 16:09:45;;;;;;;0.70;0.60;;;14.80;74.20;;;;;;4939952;29;20432;-71
2022/09/17 16:12:14;;;;;;;0.70;0.63;;;14.70;73.50;;;;;;4939795;29;20472;-71
2022/09/17 16:14:52;;;;;;;1.43;0.60;;;14.70;72.60;;;;;;4939814;29;20503;-72